Time,TemperatureF,DewpointF,PressureIn,WindDirection,WindDirectionDegrees,WindSpeedMPH,WindSpeedGustMPH,Humidity,HourlyPrecipIn,Conditions,Clouds,dailyrainin,SolarRadiationWatts/m^2,SoftwareType,DateUTC
2019-06-18 00:04:33,62.4,56.5,30.03,North,0,0,0,81,0,,,0,0.00,meteobridge,2019-06-17 22:04:33,
2019-06-18 00:09:37,62.2,56.3,30.03,North,0,0,0,81,0,,,0,0.00,meteobridge,2019-06-17 22:09:37,
2019-06-18 00:14:41,62.1,56.1,30.03,North,0,0,0,81,0,,,0,0.00,meteobridge,2019-06-17 22:14:41,
2019-06-18 00:19:45,61.5,55.9,30.03,North,0,0,0,82,0,,,0,0.00,meteobridge,2019-06-17 22:19:45,
2019-06-18 00:24:49,61.3,55.8,30.03,North,0,0,0,82,0,,,0,0.00,meteobridge,2019-06-17 22:24:49,
2019-06-18 00:29:53,61.2,55.9,30.02,North,0,0,0,83,0,,,0,0.00,meteobridge,2019-06-17 22:29:53,
2019-06-18 00:34:27,61,55.8,30.02,North,0,0,0,83,0,,,0,0.00,meteobridge,2019-06-17 22:34:27,
2019-06-18 00:39:35,60.8,55.6,30.02,North,0,0,0,83,0,,,0,0.00,meteobridge,2019-06-17 22:39:35,
2019-06-18 00:44:37,60.8,55.9,30.02,North,0,0,0,84,0,,,0,0.00,meteobridge,2019-06-17 22:44:37,
2019-06-18 00:49:39,60.8,55.9,30.02,North,0,0,0,84,0,,,0,0.00,meteobridge,2019-06-17 22:49:39,
2019-06-18 00:54:43,60.6,55.8,30.02,North,0,0,0,84,0,,,0,0.00,meteobridge,2019-06-17 22:54:43,
2019-06-18 00:59:47,60.4,55.6,30.02,North,0,0,0,84,0,,,0,0.00,meteobridge,2019-06-17 22:59:47,
2019-06-18 01:04:51,60.3,55.4,30.02,North,0,0,0,84,0,,,0,0.00,meteobridge,2019-06-17 23:04:51,
2019-06-18 01:09:23,60.3,55.8,30.02,North,0,0,0,85,0,,,0,0.00,meteobridge,2019-06-17 23:09:23,
2019-06-18 01:14:57,60.1,55.6,30.02,North,0,0,0,85,0,,,0,0.00,meteobridge,2019-06-17 23:14:57,
2019-06-18 01:19:31,60.1,55.6,30.02,North,0,0,0,85,0,,,0,0.00,meteobridge,2019-06-17 23:19:31,
2019-06-18 01:24:35,59.9,55.4,30.01,North,0,0,0,85,0,,,0,0.00,meteobridge,2019-06-17 23:24:35,
2019-06-18 01:29:39,60.1,55.6,30.01,North,0,0,0,85,0,,,0,0.00,meteobridge,2019-06-17 23:29:39,
2019-06-18 01:34:43,59.9,55.4,30.01,North,0,0,0,85,0,,,0,0.00,meteobridge,2019-06-17 23:34:43,
2019-06-18 01:39:47,60.1,55.6,30.01,North,0,0,0,85,0,,,0,0.00,meteobridge,2019-06-17 23:39:47,
2019-06-18 01:44:51,59.9,55.4,30.01,North,0,0,0,85,0,,,0,0.00,meteobridge,2019-06-17 23:44:51,
2019-06-18 01:49:29,59.7,55.2,30.01,North,0,0,0,85,0,,,0,0.00,meteobridge,2019-06-17 23:49:29,
2019-06-18 01:54:34,59.7,55.6,30.01,North,0,0,0,86,0,,,0,0.00,meteobridge,2019-06-17 23:54:34,
2019-06-18 01:59:16,59.5,55.4,30.01,North,0,0,0,86,0,,,0,0.00,meteobridge,2019-06-17 23:59:16,
2019-06-18 02:04:55,59.5,55.4,30.01,North,0,0,0,86,0,,,0,0.00,meteobridge,2019-06-18 00:04:55,
2019-06-18 02:09:29,59.5,55.4,30.01,North,0,0,0,86,0,,,0,0.00,meteobridge,2019-06-18 00:09:29,
2019-06-18 02:14:33,59.5,55.4,30.01,North,0,0,0,86,0,,,0,0.00,meteobridge,2019-06-18 00:14:33,
2019-06-18 02:19:39,59.4,55.2,30.01,North,0,0,0,86,0,,,0,0.00,meteobridge,2019-06-18 00:19:39,
2019-06-18 02:24:51,59.4,55.2,30.01,North,0,0.9,2,86,0,,,0,0.00,meteobridge,2019-06-18 00:24:51,
2019-06-18 02:29:29,59.4,55.2,30.00,North,0,2,2,86,0,,,0,0.00,meteobridge,2019-06-18 00:29:29,
2019-06-18 02:34:33,59.4,55.2,30.00,North,0,0.9,2,86,0,,,0,0.00,meteobridge,2019-06-18 00:34:33,
2019-06-18 02:39:38,59.4,55.2,30.00,North,0,0.9,1,86,0,,,0,0.00,meteobridge,2019-06-18 00:39:38,
2019-06-18 02:44:45,59.5,55.4,30.00,North,0,0,0,86,0,,,0,0.00,meteobridge,2019-06-18 00:44:45,
2019-06-18 02:49:49,59.4,55.2,30.00,North,0,0,0,86,0,,,0,0.00,meteobridge,2019-06-18 00:49:49,
2019-06-18 02:54:53,59.2,55,30.00,North,0,0,1,86,0,,,0,0.00,meteobridge,2019-06-18 00:54:53,
2019-06-18 02:59:29,59.2,55,30.00,North,0,0,0,86,0,,,0,0.00,meteobridge,2019-06-18 00:59:29,
2019-06-18 03:04:37,59.2,55,30.00,North,0,0,1,86,0,,,0,0.00,meteobridge,2019-06-18 01:04:37,
2019-06-18 03:09:43,59,54.9,30.00,North,0,0,1,86,0,,,0,0.00,meteobridge,2019-06-18 01:09:43,
2019-06-18 03:14:49,58.6,54.5,30.00,North,0,0,0,86,0,,,0,0.00,meteobridge,2019-06-18 01:14:49,
2019-06-18 03:19:29,58.6,54.5,30.00,North,0,0,0,86,0,,,0,0.00,meteobridge,2019-06-18 01:19:29,
2019-06-18 03:24:43,58.5,54.3,30.00,North,0,0,0,86,0,,,0,0.00,meteobridge,2019-06-18 01:24:43,
2019-06-18 03:29:54,58.3,54.1,30.00,North,0,0,0,86,0,,,0,0.00,meteobridge,2019-06-18 01:29:54,
2019-06-18 03:34:34,58.3,54.5,29.99,North,0,0,0,87,0,,,0,0.00,meteobridge,2019-06-18 01:34:34,
2019-06-18 03:39:46,58.3,54.5,29.99,North,0,0,0,87,0,,,0,0.00,meteobridge,2019-06-18 01:39:46,
2019-06-18 03:44:58,58.1,54.3,30.00,North,0,0,0,87,0,,,0,0.00,meteobridge,2019-06-18 01:44:58,
2019-06-18 03:49:38,57.9,54.1,29.99,North,0,0,0,87,0,,,0,0.00,meteobridge,2019-06-18 01:49:38,
2019-06-18 03:54:58,57.9,54.1,29.99,North,0,0,0,87,0,,,0,0.00,meteobridge,2019-06-18 01:54:58,
2019-06-18 03:59:38,57.7,54,29.99,North,0,0,0,87,0,,,0,0.00,meteobridge,2019-06-18 01:59:38,
2019-06-18 04:04:50,57.6,53.8,29.99,North,0,0,0,87,0,,,0,0.00,meteobridge,2019-06-18 02:04:50,
2019-06-18 04:09:38,57.6,53.8,29.99,North,0,0,0,87,0,,,0,0.00,meteobridge,2019-06-18 02:09:38,
2019-06-18 04:14:58,57.6,53.8,29.99,North,0,0,0,87,0,,,0,0.00,meteobridge,2019-06-18 02:14:58,
2019-06-18 04:19:46,57.6,53.8,29.99,North,0,0,0,87,0,,,0,0.00,meteobridge,2019-06-18 02:19:46,
2019-06-18 04:24:34,57.6,54,29.99,North,0,0,0,88,0,,,0,0.00,meteobridge,2019-06-18 02:24:34,
2019-06-18 04:29:54,57.4,53.8,29.98,North,0,0,0,88,0,,,0,0.00,meteobridge,2019-06-18 02:29:54,
2019-06-18 04:34:34,57.4,53.8,29.98,North,0,0,0,88,0,,,0,0.00,meteobridge,2019-06-18 02:34:34,
2019-06-18 04:39:44,57.6,54,29.98,North,0,0,0,88,0,,,0,0.00,meteobridge,2019-06-18 02:39:44,
2019-06-18 04:44:56,57.4,53.8,29.98,North,0,0,0,88,0,,,0,0.00,meteobridge,2019-06-18 02:44:56,
2019-06-18 04:49:30,57.6,54,29.98,North,0,0.9,2,88,0,,,0,0.00,meteobridge,2019-06-18 02:49:30,
2019-06-18 04:54:36,57.4,53.8,29.98,North,0,0,0,88,0,,,0,0.00,meteobridge,2019-06-18 02:54:36,
2019-06-18 04:59:54,57.4,53.8,29.98,North,0,0,0,88,0,,,0,0.00,meteobridge,2019-06-18 02:59:54,
2019-06-18 05:04:34,57.4,54.1,29.98,North,0,0,0,89,0,,,0,0.00,meteobridge,2019-06-18 03:04:34,
2019-06-18 05:09:52,57.4,53.8,29.98,North,0,0,0,88,0,,,0,0.00,meteobridge,2019-06-18 03:09:52,
2019-06-18 05:14:36,57.2,53.6,29.98,North,0,0,0,88,0,,,0,5.00,meteobridge,2019-06-18 03:14:36,
2019-06-18 05:19:42,57,53.4,29.98,North,0,0,0,88,0,,,0,9.00,meteobridge,2019-06-18 03:19:42,
2019-06-18 05:24:50,57,53.4,29.98,North,0,0,0,88,0,,,0,11.00,meteobridge,2019-06-18 03:24:50,
2019-06-18 05:29:26,57,53.4,29.98,North,0,0,0,88,0,,,0,12.00,meteobridge,2019-06-18 03:29:26,
2019-06-18 05:34:40,57,53.8,29.98,North,0,0,0,89,0,,,0,14.00,meteobridge,2019-06-18 03:34:40,
2019-06-18 05:39:48,57.2,54,29.98,North,0,0,0,89,0,,,0,16.00,meteobridge,2019-06-18 03:39:48,
2019-06-18 05:44:30,57.2,54,29.98,North,0,0.9,1,89,0,,,0,18.00,meteobridge,2019-06-18 03:44:30,
2019-06-18 05:49:46,57.4,54.1,29.98,North,0,0.9,2,89,0,,,0,23.00,meteobridge,2019-06-18 03:49:46,
2019-06-18 05:54:56,57.6,54.3,29.98,North,0,0,0,89,0,,,0,25.00,meteobridge,2019-06-18 03:54:56,
2019-06-18 05:59:36,57.6,54.7,29.98,North,0,0,0,90,0,,,0,32.00,meteobridge,2019-06-18 03:59:36,
2019-06-18 06:04:44,57.7,54.9,29.98,North,0,0,1,90,0,,,0,37.00,meteobridge,2019-06-18 04:04:44,
2019-06-18 06:09:50,57.7,54.9,29.98,North,0,0.9,1,90,0,,,0,44.00,meteobridge,2019-06-18 04:09:50,
2019-06-18 06:14:54,57.7,54.9,29.98,North,0,0,0,90,0,,,0,46.00,meteobridge,2019-06-18 04:14:54,
2019-06-18 06:19:30,57.9,55,29.98,North,0,0,1,90,0,,,0,40.00,meteobridge,2019-06-18 04:19:30,
2019-06-18 06:24:34,57.9,55,29.98,North,0,0,1,90,0,,,0,40.00,meteobridge,2019-06-18 04:24:34,
2019-06-18 06:29:42,58.3,55.4,29.98,North,0,0,1,90,0,,,0,49.00,meteobridge,2019-06-18 04:29:42,
2019-06-18 06:34:48,58.3,55.4,29.98,North,0,0,0,90,0,,,0,60.00,meteobridge,2019-06-18 04:34:48,
2019-06-18 06:39:52,58.5,55.6,29.98,North,0,0,0,90,0,,,0,42.00,meteobridge,2019-06-18 04:39:52,
2019-06-18 06:44:54,58.6,55.9,29.97,North,0,0,1,91,0,,,0,58.00,meteobridge,2019-06-18 04:44:54,
2019-06-18 06:49:34,58.6,55.9,29.98,North,0,0,1,91,0,,,0,95.00,meteobridge,2019-06-18 04:49:34,
2019-06-18 06:54:36,58.8,56.1,29.97,North,0,0,0,91,0,,,0,102.00,meteobridge,2019-06-18 04:54:36,
2019-06-18 06:59:42,59.2,56.5,29.97,North,0,0,1,91,0,,,0,100.00,meteobridge,2019-06-18 04:59:42,
2019-06-18 07:04:48,59.4,56.7,29.97,North,0,0,0,91,0,,,0,107.00,meteobridge,2019-06-18 05:04:48,
2019-06-18 07:09:52,59.5,56.8,29.97,North,0,0,1,91,0,,,0,77.00,meteobridge,2019-06-18 05:09:52,
2019-06-18 07:14:56,59.7,57,29.97,North,0,0.9,1,91,0,,,0,107.00,meteobridge,2019-06-18 05:14:56,
2019-06-18 07:19:36,60.1,57.4,29.98,North,0,2,3,91,0,,,0,163.00,meteobridge,2019-06-18 05:19:36,
2019-06-18 07:24:40,60.3,57.6,29.98,North,0,2,2,91,0,,,0,54.00,meteobridge,2019-06-18 05:24:40,
2019-06-18 07:29:44,60.4,57.7,29.98,NW,317,2,3,91,0,,,0,114.00,meteobridge,2019-06-18 05:29:44,
2019-06-18 07:34:54,60.6,57.9,29.98,NW,316,0.9,2,91,0,,,0,88.00,meteobridge,2019-06-18 05:34:54,
2019-06-18 07:39:30,60.8,58.1,29.98,NW,316,0,2,91,0,,,0,176.00,meteobridge,2019-06-18 05:39:30,
2019-06-18 07:44:30,61,58.3,29.98,NW,316,0,1,91,0,,,0,202.00,meteobridge,2019-06-18 05:44:30,
2019-06-18 07:49:34,61.2,58.5,29.98,NW,316,0,1,91,0,,,0,169.00,meteobridge,2019-06-18 05:49:34,
2019-06-18 07:54:38,61.2,58.3,29.98,NW,316,0,1,90,0,,,0,102.00,meteobridge,2019-06-18 05:54:38,
2019-06-18 07:59:42,61.3,58.5,29.98,NW,316,0,1,90,0,,,0,86.00,meteobridge,2019-06-18 05:59:42,
2019-06-18 08:04:46,61.5,58.6,29.98,NW,316,0,1,90,0,,,0,69.00,meteobridge,2019-06-18 06:04:46,
2019-06-18 08:09:48,61.7,58.8,29.97,NW,315,0,1,90,0,,,0,316.00,meteobridge,2019-06-18 06:09:48,
2019-06-18 08:14:54,61.9,59,29.98,NW,316,0,1,90,0,,,0,269.00,meteobridge,2019-06-18 06:14:54,
2019-06-18 08:19:32,62.1,59.2,29.98,NW,316,0,1,90,0,,,0,172.00,meteobridge,2019-06-18 06:19:32,
2019-06-18 08:24:36,62.4,59.2,29.98,NW,316,0,1,89,0,,,0,392.00,meteobridge,2019-06-18 06:24:36,
2019-06-18 08:29:38,62.6,59.4,29.97,NW,316,0,1,89,0,,,0,146.00,meteobridge,2019-06-18 06:29:38,
2019-06-18 08:34:42,63,59.4,29.97,NW,316,0,2,88,0,,,0,408.00,meteobridge,2019-06-18 06:34:42,
2019-06-18 08:39:46,63.5,59.5,29.97,NW,316,0,1,87,0,,,0,422.00,meteobridge,2019-06-18 06:39:46,
2019-06-18 08:44:50,63.9,59.5,29.97,NW,316,2,2,86,0,,,0,418.00,meteobridge,2019-06-18 06:44:50,
2019-06-18 08:49:54,64.4,59.5,29.97,NW,316,0.9,2,84,0,,,0,445.00,meteobridge,2019-06-18 06:49:54,
2019-06-18 08:54:58,66.4,60.4,29.97,East,82,2.9,3,81,0,,,0,471.00,meteobridge,2019-06-18 06:54:58,
2019-06-18 08:59:32,67.3,60.6,29.97,East,90,0.9,3,79,0,,,0,483.00,meteobridge,2019-06-18 06:59:32,
2019-06-18 09:04:38,67.6,60.3,29.97,ENE,69,2,3,77,0,,,0,513.00,meteobridge,2019-06-18 07:04:38,
2019-06-18 09:09:42,68.4,60.1,29.97,ENE,69,0.9,3,75,0,,,0,515.00,meteobridge,2019-06-18 07:09:42,
2019-06-18 09:14:46,68.7,60.4,29.97,ENE,72,0.9,2,75,0,,,0,132.00,meteobridge,2019-06-18 07:14:46,
2019-06-18 09:19:48,68.7,60.4,29.97,ENE,72,0.9,1,75,0,,,0,223.00,meteobridge,2019-06-18 07:19:48,
2019-06-18 09:24:50,68.7,60.8,29.97,ENE,72,2,2,76,0,,,0,163.00,meteobridge,2019-06-18 07:24:50,
2019-06-18 09:29:56,68.9,60.3,29.97,North,0,2,2,74,0,,,0,519.00,meteobridge,2019-06-18 07:29:56,
2019-06-18 09:34:30,68.9,60.6,29.97,NW,311,2.9,4,75,0,,,0,510.00,meteobridge,2019-06-18 07:34:30,
2019-06-18 09:39:36,69.3,61,29.97,NW,311,2,2,75,0,,,0,482.00,meteobridge,2019-06-18 07:39:36,
2019-06-18 09:44:38,69.6,60.6,29.97,NW,311,0.9,3,73,0,,,0,494.00,meteobridge,2019-06-18 07:44:38,
2019-06-18 09:49:44,70,61,29.96,NW,311,0.9,1,73,0,,,0,490.00,meteobridge,2019-06-18 07:49:44,
2019-06-18 09:54:46,70,61,29.97,NW,312,0.9,2,73,0,,,0,462.00,meteobridge,2019-06-18 07:54:46,
2019-06-18 09:59:50,70.3,61.3,29.96,NW,312,0.9,3,73,0,,,0,468.00,meteobridge,2019-06-18 07:59:50,
2019-06-18 10:04:54,70.3,62.1,29.96,NW,312,0.9,2,75,0,,,0,475.00,meteobridge,2019-06-18 08:04:54,
2019-06-18 10:09:28,70.5,61.9,29.96,NNW,344,0.9,2,74,0,,,0,471.00,meteobridge,2019-06-18 08:09:28,
2019-06-18 10:14:32,71.2,63,29.96,North,355,0,2,75,0,,,0,450.00,meteobridge,2019-06-18 08:14:32,
2019-06-18 10:19:36,71.4,62.2,29.96,North,355,0,2,73,0,,,0,473.00,meteobridge,2019-06-18 08:19:36,
2019-06-18 10:24:40,72,62.4,29.96,NW,321,0.9,3,72,0,,,0,490.00,meteobridge,2019-06-18 08:24:40,
2019-06-18 10:29:44,72.1,61.9,29.96,WSW,247,0.9,2,70,0,,,0,466.00,meteobridge,2019-06-18 08:29:44,
2019-06-18 10:34:48,72.3,62.4,29.96,WSW,248,0,3,71,0,,,0,489.00,meteobridge,2019-06-18 08:34:48,
2019-06-18 10:39:52,72.5,63.3,29.96,WSW,248,2,2,73,0,,,0,554.00,meteobridge,2019-06-18 08:39:52,
2019-06-18 10:44:54,72.7,63.1,29.96,WSW,248,2,3,72,0,,,0,575.00,meteobridge,2019-06-18 08:44:54,
2019-06-18 10:49:26,73.6,62.8,29.96,WSW,247,0.9,4,69,0,,,0,591.00,meteobridge,2019-06-18 08:49:26,
2019-06-18 10:54:30,73.8,62.6,29.96,WSW,248,2,3,68,0,,,0,622.00,meteobridge,2019-06-18 08:54:30,
2019-06-18 10:59:38,74.1,63.7,29.96,WSW,248,2,2,70,0,,,0,668.00,meteobridge,2019-06-18 08:59:38,
2019-06-18 11:04:42,74.1,63,29.96,North,5,2.9,3,68,0,,,0,570.00,meteobridge,2019-06-18 09:04:42,
2019-06-18 11:09:46,73.8,62.6,29.96,NW,321,0.9,3,68,0,,,0,624.00,meteobridge,2019-06-18 09:09:46,
2019-06-18 11:14:48,73.9,62.8,29.96,NNE,22,0.9,4,68,0,,,0,668.00,meteobridge,2019-06-18 09:14:48,
2019-06-18 11:19:52,73.9,62.8,29.96,NNE,24,0.9,3,68,0,,,0,698.00,meteobridge,2019-06-18 09:19:52,
2019-06-18 11:24:26,74.5,63.1,29.96,NNE,29,0.9,2,68,0,,,0,594.00,meteobridge,2019-06-18 09:24:26,
2019-06-18 11:29:34,75,63.7,29.96,SW,224,2,4,68,0,,,0,621.00,meteobridge,2019-06-18 09:29:34,
2019-06-18 11:34:40,75.6,63.3,29.96,SW,228,2,2,66,0,,,0,687.00,meteobridge,2019-06-18 09:34:40,
2019-06-18 11:39:44,75.2,63.9,29.96,North,11,4,4,68,0,,,0,603.00,meteobridge,2019-06-18 09:39:44,
2019-06-18 11:44:48,75.2,63.9,29.96,WNW,292,2,4,68,0,,,0,624.00,meteobridge,2019-06-18 09:44:48,
2019-06-18 11:49:52,75.6,63.9,29.96,WNW,287,2.9,3,67,0,,,0,628.00,meteobridge,2019-06-18 09:49:52,
2019-06-18 11:54:56,76.3,63.7,29.96,North,0,4.9,5,65,0,,,0,751.00,meteobridge,2019-06-18 09:54:56,
2019-06-18 11:59:30,76.5,63.9,29.95,West,276,2,4,65,0,,,0,788.00,meteobridge,2019-06-18 09:59:30,
2019-06-18 12:04:37,77.2,63.1,29.95,South,174,0.9,6,62,0,,,0,766.00,meteobridge,2019-06-18 10:04:37,
2019-06-18 12:09:40,77.5,63,29.95,SE,128,0,4,61,0,,,0,782.00,meteobridge,2019-06-18 10:09:40,
2019-06-18 12:14:42,77.7,64.9,29.95,SW,217,4.9,6,65,0,,,0,791.00,meteobridge,2019-06-18 10:14:42,
2019-06-18 12:19:48,77.5,64.4,29.95,SW,224,2,7,64,0,,,0,810.00,meteobridge,2019-06-18 10:19:48,
2019-06-18 12:24:50,77.2,62.6,29.95,SE,134,2,4,61,0,,,0,751.00,meteobridge,2019-06-18 10:24:50,
2019-06-18 12:29:56,77.4,63.3,29.95,WNW,295,4,4,62,0,,,0,552.00,meteobridge,2019-06-18 10:29:56,
2019-06-18 12:34:30,77.2,63.1,29.95,NW,319,2,3,62,0,,,0,605.00,meteobridge,2019-06-18 10:34:30,
2019-06-18 12:39:34,77.2,62.6,29.95,North,5,0.9,4,61,0,,,0,397.00,meteobridge,2019-06-18 10:39:34,
2019-06-18 12:44:42,76.8,63.3,29.95,North,0,2.9,3,63,0,,,0,851.00,meteobridge,2019-06-18 10:44:42,
2019-06-18 12:49:48,78.3,62.8,29.95,SSE,167,0.9,5,59,0,,,0,796.00,meteobridge,2019-06-18 10:49:48,
2019-06-18 12:54:52,79,63.5,29.95,SSE,154,2.9,6,59,0,,,0,861.00,meteobridge,2019-06-18 10:54:52,
2019-06-18 12:59:29,79,63.9,29.95,SSW,202,2,5,60,0,,,0,729.00,meteobridge,2019-06-18 10:59:29,
2019-06-18 13:04:38,78.6,63.5,29.94,SE,144,2.9,5,60,0,,,0,865.00,meteobridge,2019-06-18 11:04:38,
2019-06-18 13:09:44,79.2,63.7,29.94,SW,223,4,5,59,0,,,0,677.00,meteobridge,2019-06-18 11:09:44,
2019-06-18 13:14:49,79.5,64.9,29.94,SSW,213,4,7,61,0,,,0,789.00,meteobridge,2019-06-18 11:14:49,
2019-06-18 13:19:56,79.3,64.2,29.94,SW,234,2,7,60,0,,,0,659.00,meteobridge,2019-06-18 11:19:56,
2019-06-18 13:24:32,79.2,63.1,29.94,West,262,2.9,5,58,0,,,0,571.00,meteobridge,2019-06-18 11:24:32,
2019-06-18 13:29:38,79,62.4,29.94,WSW,246,2.9,4,57,0,,,0,443.00,meteobridge,2019-06-18 11:29:38,
2019-06-18 13:34:44,78.4,64.8,29.94,NE,34,4,4,63,0,,,0,673.00,meteobridge,2019-06-18 11:34:44,
2019-06-18 13:39:48,78.3,65.5,29.94,NNW,344,0,5,65,0,,,0,708.00,meteobridge,2019-06-18 11:39:48,
2019-06-18 13:44:27,78.1,66.2,29.94,NW,304,4,9,67,0,,,0,457.00,meteobridge,2019-06-18 11:44:27,
2019-06-18 13:49:38,77.4,66,29.95,NNW,343,10.1,11,68,0,,,0,622.00,meteobridge,2019-06-18 11:49:38,
2019-06-18 13:54:43,76.8,66.2,29.94,North,355,2.9,6,70,0,,,0,513.00,meteobridge,2019-06-18 11:54:43,
2019-06-18 13:59:49,76.5,65.5,29.95,North,5,2.9,12,69,0,,,0,526.00,meteobridge,2019-06-18 11:59:49,
2019-06-18 14:04:53,76.6,65.7,29.95,NW,321,4,9,69,0,,,0,589.00,meteobridge,2019-06-18 12:04:53,
2019-06-18 14:09:55,76.3,65.3,29.95,North,5,10.1,10,69,0,,,0,696.00,meteobridge,2019-06-18 12:09:55,
2019-06-18 14:14:31,75.9,64.9,29.95,North,0,4.9,8,69,0,,,0,849.00,meteobridge,2019-06-18 12:14:31,
2019-06-18 14:19:33,76.3,64.6,29.95,NNW,348,4,11,67,0,,,0,865.00,meteobridge,2019-06-18 12:19:33,
2019-06-18 14:24:35,75.9,64.2,29.95,North,0,2.9,9,67,0,,,0,828.00,meteobridge,2019-06-18 12:24:35,
2019-06-18 14:29:35,75,63.3,29.95,NNW,335,10.1,11,67,0,,,0,459.00,meteobridge,2019-06-18 12:29:35,
2019-06-18 14:34:39,75,63.3,29.95,North,355,2.9,9,67,0,,,0,663.00,meteobridge,2019-06-18 12:34:39,
2019-06-18 14:39:43,75.2,63.5,29.95,NNW,342,6,11,67,0,,,0,838.00,meteobridge,2019-06-18 12:39:43,
2019-06-18 14:44:46,75,63.3,29.95,WNW,302,10.1,10,67,0,,,0,533.00,meteobridge,2019-06-18 12:44:46,
2019-06-18 14:49:49,75,63.3,29.95,WNW,290,2.9,9,67,0,,,0,707.00,meteobridge,2019-06-18 12:49:49,
2019-06-18 14:54:51,74.8,63.1,29.95,North,0,2.9,9,67,0,,,0,615.00,meteobridge,2019-06-18 12:54:51,
2019-06-18 14:59:31,75.2,63.5,29.94,NNW,340,4,6,67,0,,,0,617.00,meteobridge,2019-06-18 12:59:31,
2019-06-18 15:04:31,75.4,63.7,29.94,NW,305,2.9,7,67,0,,,0,663.00,meteobridge,2019-06-18 13:04:31,
2019-06-18 15:09:35,75.4,62.8,29.94,North,11,4,9,65,0,,,0,599.00,meteobridge,2019-06-18 13:09:35,
2019-06-18 15:14:37,75.4,62.8,29.94,North,0,2.9,8,65,0,,,0,626.00,meteobridge,2019-06-18 13:14:37,
2019-06-18 15:19:43,75.6,63,29.94,North,355,10.1,11,65,0,,,0,715.00,meteobridge,2019-06-18 13:19:43,
2019-06-18 15:24:45,75.7,63.5,29.93,SE,136,2,6,66,0,,,0,707.00,meteobridge,2019-06-18 13:24:45,
2019-06-18 15:29:51,75.6,63.3,29.93,North,5,8.1,9,66,0,,,0,759.00,meteobridge,2019-06-18 13:29:51,
2019-06-18 15:34:53,75.7,64,29.93,North,349,4.9,8,67,0,,,0,749.00,meteobridge,2019-06-18 13:34:53,
2019-06-18 15:39:57,76.5,64.8,29.94,NW,305,4,6,67,0,,,0,740.00,meteobridge,2019-06-18 13:39:57,
2019-06-18 15:44:57,76.1,63.9,29.94,NNW,336,4.9,9,66,0,,,0,729.00,meteobridge,2019-06-18 13:44:57,
2019-06-18 15:49:29,76.1,63.9,29.94,NNE,16,2,8,66,0,,,0,722.00,meteobridge,2019-06-18 13:49:29,
2019-06-18 15:54:35,76.3,63.1,29.93,NNE,26,4,10,64,0,,,0,715.00,meteobridge,2019-06-18 13:54:35,
2019-06-18 15:59:37,75.9,63.3,29.93,North,5,2,9,65,0,,,0,721.00,meteobridge,2019-06-18 13:59:37,
2019-06-18 16:04:39,75.9,62.8,29.93,NW,323,4,8,64,0,,,0,633.00,meteobridge,2019-06-18 14:04:39,
2019-06-18 16:09:45,76.1,63.9,29.93,North,0,4,9,66,0,,,0,432.00,meteobridge,2019-06-18 14:09:45,
2019-06-18 16:14:49,76.3,64.6,29.93,NNW,342,2,7,67,0,,,0,520.00,meteobridge,2019-06-18 14:14:49,
2019-06-18 16:19:53,76.3,64,29.93,NNE,30,4.9,10,66,0,,,0,747.00,meteobridge,2019-06-18 14:19:53,
2019-06-18 16:24:25,75.7,64,29.93,WNW,286,8.1,9,67,0,,,0,445.00,meteobridge,2019-06-18 14:24:25,
2019-06-18 16:29:59,75.2,63.5,29.93,WNW,291,2,8,67,0,,,0,515.00,meteobridge,2019-06-18 14:29:59,
2019-06-18 16:34:35,75.4,63.7,29.93,WNW,300,2,5,67,0,,,0,512.00,meteobridge,2019-06-18 14:34:35,
2019-06-18 16:39:41,75.4,63.1,29.93,NNW,333,2,10,66,0,,,0,438.00,meteobridge,2019-06-18 14:39:41,
2019-06-18 16:44:41,75.4,64,29.93,NNW,333,2,5,68,0,,,0,531.00,meteobridge,2019-06-18 14:44:41,
2019-06-18 16:49:47,75.4,63.1,29.93,NW,310,4,8,66,0,,,0,411.00,meteobridge,2019-06-18 14:49:47,
2019-06-18 16:54:55,75.2,63.5,29.93,WNW,287,2.9,6,67,0,,,0,278.00,meteobridge,2019-06-18 14:54:55,
2019-06-18 16:59:29,75,63.3,29.93,NNW,344,2,7,67,0,,,0,364.00,meteobridge,2019-06-18 14:59:29,
2019-06-18 17:04:33,74.8,63.1,29.93,NNW,341,2,5,67,0,,,0,411.00,meteobridge,2019-06-18 15:04:33,
2019-06-18 17:09:35,74.8,63.5,29.93,NNE,25,2.9,8,68,0,,,0,533.00,meteobridge,2019-06-18 15:09:35,
2019-06-18 17:14:35,75.2,64.4,29.93,NW,318,2,6,69,0,,,0,577.00,meteobridge,2019-06-18 15:14:35,
2019-06-18 17:19:39,75.7,64,29.93,North,0,8.1,11,67,0,,,0,555.00,meteobridge,2019-06-18 15:19:39,
2019-06-18 17:24:45,75.9,63.7,29.93,NNW,347,2,9,66,0,,,0,524.00,meteobridge,2019-06-18 15:24:45,
2019-06-18 17:29:45,76.5,63.3,29.92,NNE,15,8.1,11,64,0,,,0,527.00,meteobridge,2019-06-18 15:29:45,
2019-06-18 17:34:45,76.6,63.5,29.92,North,5,4.9,8,64,0,,,0,504.00,meteobridge,2019-06-18 15:34:45,
2019-06-18 17:39:47,76.6,63.1,29.92,West,281,6,6,63,0,,,0,527.00,meteobridge,2019-06-18 15:39:47,
2019-06-18 17:44:53,76.8,63.3,29.92,NNW,343,2.9,5,63,0,,,0,519.00,meteobridge,2019-06-18 15:44:53,
2019-06-18 17:49:55,77,63,29.92,NNE,31,4,10,62,0,,,0,510.00,meteobridge,2019-06-18 15:49:55,
2019-06-18 17:54:57,76.8,62.8,29.92,NNE,17,0.9,6,62,0,,,0,497.00,meteobridge,2019-06-18 15:54:57,
2019-06-18 17:59:29,77,62.6,29.92,NNE,16,2.9,7,61,0,,,0,490.00,meteobridge,2019-06-18 15:59:29,
2019-06-18 18:04:33,77,62.1,29.92,North,10,6.9,10,60,0,,,0,473.00,meteobridge,2019-06-18 16:04:33,
2019-06-18 18:09:37,76.8,61.3,29.92,NNE,15,4,7,59,0,,,0,459.00,meteobridge,2019-06-18 16:09:37,
2019-06-18 18:14:41,76.8,62.4,29.92,North,355,4,5,61,0,,,0,448.00,meteobridge,2019-06-18 16:14:41,
2019-06-18 18:19:45,76.6,61.2,29.92,NNE,22,6,10,59,0,,,0,438.00,meteobridge,2019-06-18 16:19:45,
2019-06-18 18:24:51,76.5,61,29.92,North,5,2,6,59,0,,,0,425.00,meteobridge,2019-06-18 16:24:51,
2019-06-18 18:29:55,76.3,61.9,29.92,NE,46,4,8,61,0,,,0,424.00,meteobridge,2019-06-18 16:29:55,
2019-06-18 18:34:29,76.3,61.3,29.92,North,0,2.9,8,60,0,,,0,439.00,meteobridge,2019-06-18 16:34:29,
2019-06-18 18:39:33,76.5,61,29.92,WNW,300,2.9,9,59,0,,,0,459.00,meteobridge,2019-06-18 16:39:33,
2019-06-18 18:44:37,75.9,60.1,29.91,NW,316,2,10,58,0,,,0,357.00,meteobridge,2019-06-18 16:44:37,
2019-06-18 18:49:39,75.7,60.8,29.92,NNW,344,4.9,6,60,0,,,0,427.00,meteobridge,2019-06-18 16:49:39,
2019-06-18 18:54:45,75.6,60.6,29.91,NNE,32,4.9,9,60,0,,,0,369.00,meteobridge,2019-06-18 16:54:45,
2019-06-18 18:59:49,75.6,60.6,29.91,NNE,33,4.9,9,60,0,,,0,153.00,meteobridge,2019-06-18 16:59:49,
2019-06-18 19:04:55,74.8,60.4,29.91,North,0,4,5,61,0,,,0,285.00,meteobridge,2019-06-18 17:04:55,
2019-06-18 19:09:59,74.3,59.5,29.91,NNW,343,2,6,60,0,,,0,171.00,meteobridge,2019-06-18 17:09:59,
2019-06-18 19:14:31,73.8,59.5,29.91,NW,324,4.9,9,61,0,,,0,123.00,meteobridge,2019-06-18 17:14:31,
2019-06-18 19:19:39,73,58.3,29.91,NNW,348,2,6,60,0,,,0,111.00,meteobridge,2019-06-18 17:19:39,
2019-06-18 19:24:41,72.3,58.1,29.92,North,350,2.9,9,61,0,,,0,102.00,meteobridge,2019-06-18 17:24:41,
2019-06-18 19:29:43,71.8,58.1,29.91,NE,36,4,9,62,0,,,0,95.00,meteobridge,2019-06-18 17:29:43,
2019-06-18 19:34:47,71.2,57.6,29.91,North,355,4,7,62,0,,,0,113.00,meteobridge,2019-06-18 17:34:47,
2019-06-18 19:39:51,71.1,57.4,29.91,NNE,30,2.9,8,62,0,,,0,111.00,meteobridge,2019-06-18 17:39:51,
2019-06-18 19:44:55,70.5,57.4,29.91,NNE,30,2.9,4,63,0,,,0,236.00,meteobridge,2019-06-18 17:44:55,
2019-06-18 19:49:31,70.9,57.7,29.90,NNE,21,2,5,63,0,,,0,223.00,meteobridge,2019-06-18 17:49:31,
2019-06-18 19:54:35,71.2,57.9,29.90,NNE,13,2,4,63,0,,,0,220.00,meteobridge,2019-06-18 17:54:35,
2019-06-18 19:59:39,71.4,58.1,29.90,NNW,348,2,7,63,0,,,0,216.00,meteobridge,2019-06-18 17:59:39,
2019-06-18 20:04:45,71.6,58.8,29.91,North,5,2.9,9,64,0,,,0,209.00,meteobridge,2019-06-18 18:04:45,
2019-06-18 20:09:47,71.8,59,29.90,North,9,8.1,10,64,0,,,0,207.00,meteobridge,2019-06-18 18:09:47,
2019-06-18 20:14:51,71.4,58.1,29.90,NNE,29,2.9,8,63,0,,,0,190.00,meteobridge,2019-06-18 18:14:51,
2019-06-18 20:19:55,71.4,57.7,29.90,North,5,6,10,62,0,,,0,172.00,meteobridge,2019-06-18 18:19:55,
2019-06-18 20:24:29,71.2,57.9,29.90,NNE,26,2,6,63,0,,,0,146.00,meteobridge,2019-06-18 18:24:29,
2019-06-18 20:29:33,71.1,59.2,29.90,NNE,29,6,11,66,0,,,0,132.00,meteobridge,2019-06-18 18:29:33,
2019-06-18 20:34:37,70.9,59.4,29.90,NE,51,2,7,67,0,,,0,114.00,meteobridge,2019-06-18 18:34:37,
2019-06-18 20:39:41,70.5,59,29.90,NNE,26,4.9,9,67,0,,,0,102.00,meteobridge,2019-06-18 18:39:41,
2019-06-18 20:44:45,70.3,58.8,29.90,North,5,4,8,67,0,,,0,79.00,meteobridge,2019-06-18 18:44:45,
2019-06-18 20:49:49,69.8,58.3,29.90,North,355,2,5,67,0,,,0,42.00,meteobridge,2019-06-18 18:49:49,
2019-06-18 20:54:53,69.3,57.4,29.90,North,0,2,6,66,0,,,0,35.00,meteobridge,2019-06-18 18:54:53,
2019-06-18 20:59:57,68.7,57.7,29.90,NNE,28,2,8,68,0,,,0,35.00,meteobridge,2019-06-18 18:59:57,
2019-06-18 21:04:31,68.4,58.3,29.90,NNE,32,0.9,4,70,0,,,0,35.00,meteobridge,2019-06-18 19:04:31,
2019-06-18 21:09:35,68,58.3,29.90,NE,38,0.9,5,71,0,,,0,35.00,meteobridge,2019-06-18 19:09:35,
2019-06-18 21:14:39,67.6,58.3,29.90,NE,41,4,4,72,0,,,0,33.00,meteobridge,2019-06-18 19:14:39,
2019-06-18 21:19:43,67.5,58.5,29.90,NE,41,2,3,73,0,,,0,32.00,meteobridge,2019-06-18 19:19:43,
2019-06-18 21:24:47,67.3,58.6,29.90,NE,37,4,5,74,0,,,0,30.00,meteobridge,2019-06-18 19:24:47,
2019-06-18 21:29:51,67.3,59,29.90,NNE,30,2.9,4,75,0,,,0,26.00,meteobridge,2019-06-18 19:29:51,
2019-06-18 21:34:55,66.9,58.8,29.90,NNE,27,2,6,75,0,,,0,19.00,meteobridge,2019-06-18 19:34:55,
2019-06-18 21:39:29,66.7,58.6,29.90,NE,46,2,4,75,0,,,0,16.00,meteobridge,2019-06-18 19:39:29,
2019-06-18 21:44:33,66.4,58.3,29.90,ENE,61,0.9,5,75,0,,,0,12.00,meteobridge,2019-06-18 19:44:33,
2019-06-18 21:49:37,66,57.9,29.90,NNE,33,2,3,75,0,,,0,9.00,meteobridge,2019-06-18 19:49:37,
2019-06-18 21:54:41,65.7,57.9,29.90,NE,55,2,4,76,0,,,0,7.00,meteobridge,2019-06-18 19:54:41,
2019-06-18 21:59:47,65.7,58.3,29.90,NE,46,0,1,77,0,,,0,5.00,meteobridge,2019-06-18 19:59:47,
2019-06-18 22:04:51,65.3,58.3,29.90,NE,44,2.9,4,78,0,,,0,0.00,meteobridge,2019-06-18 20:04:51,
2019-06-18 22:09:53,65.1,58.1,29.90,NE,43,2.9,4,78,0,,,0,0.00,meteobridge,2019-06-18 20:09:53,
2019-06-18 22:14:27,64.9,57.9,29.90,NE,42,0.9,4,78,0,,,0,0.00,meteobridge,2019-06-18 20:14:27,
2019-06-18 22:19:31,64.9,58.3,29.90,NE,42,0.9,3,79,0,,,0,0.00,meteobridge,2019-06-18 20:19:31,
2019-06-18 22:24:37,64.9,58.3,29.90,NE,42,0,3,79,0,,,0,0.00,meteobridge,2019-06-18 20:24:37,
2019-06-18 22:29:41,64.9,58.3,29.90,NE,42,0,3,79,0,,,0,0.00,meteobridge,2019-06-18 20:29:41,
2019-06-18 22:34:51,64.8,58.1,29.90,NE,42,0,1,79,0,,,0,0.00,meteobridge,2019-06-18 20:34:51,
2019-06-18 22:39:29,64.6,57.9,29.90,NE,46,0.9,2,79,0,,,0,0.00,meteobridge,2019-06-18 20:39:29,
2019-06-18 22:44:35,64.2,57.9,29.90,NE,46,0,2,80,0,,,0,0.00,meteobridge,2019-06-18 20:44:35,
2019-06-18 22:49:41,64,58.1,29.90,NE,46,0,2,81,0,,,0,0.00,meteobridge,2019-06-18 20:49:41,
2019-06-18 22:54:45,63.9,57.9,29.90,NE,46,0,2,81,0,,,0,0.00,meteobridge,2019-06-18 20:54:45,
2019-06-18 22:59:49,63.7,57.7,29.90,NE,46,0.9,2,81,0,,,0,0.00,meteobridge,2019-06-18 20:59:49,
2019-06-18 23:04:53,63.3,57.7,29.90,NE,49,0,1,82,0,,,0,0.00,meteobridge,2019-06-18 21:04:53,
2019-06-18 23:09:29,63.1,57.6,29.90,NE,49,0.9,1,82,0,,,0,0.00,meteobridge,2019-06-18 21:09:29,
2019-06-18 23:14:35,63.1,57.6,29.89,NE,49,0,2,82,0,,,0,0.00,meteobridge,2019-06-18 21:14:35,
2019-06-18 23:19:41,63,57.7,29.89,NE,49,0,3,83,0,,,0,0.00,meteobridge,2019-06-18 21:19:41,
2019-06-18 23:24:49,63,57.7,29.89,NE,49,0.9,2,83,0,,,0,0.00,meteobridge,2019-06-18 21:24:49,
2019-06-18 23:29:53,63,57.7,29.89,NE,49,0.9,2,83,0,,,0,0.00,meteobridge,2019-06-18 21:29:53,
2019-06-18 23:34:57,62.8,57.6,29.89,NE,49,0,2,83,0,,,0,0.00,meteobridge,2019-06-18 21:34:57,
2019-06-18 23:39:32,62.8,57.6,29.89,NE,49,0,1,83,0,,,0,0.00,meteobridge,2019-06-18 21:39:32,
2019-06-18 23:44:37,62.8,57.6,29.89,NE,49,0.9,2,83,0,,,0,0.00,meteobridge,2019-06-18 21:44:37,
2019-06-18 23:49:41,62.8,57.9,29.89,NE,49,0.9,2,84,0,,,0,0.00,meteobridge,2019-06-18 21:49:41,
2019-06-18 23:54:45,62.8,57.9,29.89,ENE,57,2.9,5,84,0,,,0,0.00,meteobridge,2019-06-18 21:54:45,
2019-06-18 23:59:53,62.8,57.9,29.88,ENE,73,2.9,4,84,0,,,0,0.00,meteobridge,2019-06-18 21:59:53,